Time;durP1;ratioP1;P1;durP2;ratioP2;P2;SDS_P1;SDS_P2;PMS_P1;PMS_P2;Temp;Humidity;BMP_temperature;BMP_pressure;BME280_temperature;BME280_humidity;BME280_pressure;Samples;Min_cycle;Max_cycle;Signal;HPM_P1;HPM_P2
2023/10/05 00:00:47;;;;;;;6.07;3.40;;;;;;;11.95;100.00;99585.00;5159509;27;20046;-60
2023/10/05 00:03:14;;;;;;;8.70;2.70;;;;;;;11.91;100.00;99571.19;5158945;27;20047;-62
2023/10/05 00:05:40;;;;;;;9.90;2.90;;;;;;;12.23;100.00;99584.75;5159130;27;20046;-59
2023/10/05 00:08:07;;;;;;;11.07;3.17;;;;;;;11.94;100.00;99534.75;5159134;27;20051;-60
2023/10/05 00:10:33;;;;;;;10.93;2.75;;;;;;;12.09;100.00;99504.78;5158966;27;20080;-62
2023/10/05 00:13:07;;;;;;;6.20;2.63;;;;;;;12.12;100.00;99542.50;5158960;27;20077;-59
2023/10/05 00:15:36;;;;;;;10.35;3.50;;;;;;;11.99;100.00;99492.44;5158863;27;20061;-62
2023/10/05 00:18:03;;;;;;;6.30;2.50;;;;;;;12.20;100.00;99495.56;5159064;27;20057;-61
2023/10/05 00:20:33;;;;;;;10.60;2.85;;;;;;;12.00;100.00;99524.25;5158605;27;20430;-60
2023/10/05 00:23:03;;;;;;;6.57;3.22;;;;;;;11.90;100.00;99495.44;5159085;27;20046;-60
2023/10/05 00:25:32;;;;;;;8.68;2.90;;;;;;;12.20;100.00;99516.75;5158573;27;20057;-59
2023/10/05 00:28:03;;;;;;;15.55;2.97;;;;;;;11.72;100.00;99528.03;5158730;27;20092;-58
2023/10/05 00:30:29;;;;;;;6.93;2.80;;;;;;;12.08;100.00;99572.69;5158820;27;20050;-60
2023/10/05 00:32:58;;;;;;;15.10;3.65;;;;;;;12.01;100.00;99556.06;5158638;27;20057;-62
2023/10/05 00:35:27;;;;;;;6.78;2.75;;;;;;;11.83;100.00;99579.63;5158533;27;20392;-61
2023/10/05 00:37:59;;;;;;;11.52;3.22;;;;;;;11.98;100.00;99570.53;5158327;27;20093;-63
2023/10/05 00:40:34;;;;;;;8.02;2.53;;;;;;;11.86;100.00;99563.25;5158592;27;20051;-61
2023/10/05 00:43:04;;;;;;;9.23;2.88;;;;;;;11.83;100.00;99530.16;5158397;27;20074;-60
2023/10/05 00:45:31;;;;;;;8.32;3.08;;;;;;;12.12;100.00;99532.31;5158772;27;20325;-60
2023/10/05 00:48:09;;;;;;;9.20;2.95;;;;;;;12.11;100.00;99467.53;5158185;27;20354;-61
2023/10/05 00:50:35;;;;;;;8.13;2.90;;;;;;;12.11;100.00;99491.47;5158188;27;20519;-62
2023/10/05 00:53:03;;;;;;;9.15;2.83;;;;;;;12.02;100.00;99503.47;5158556;27;20200;-62
2023/10/05 00:55:29;;;;;;;11.73;3.22;;;;;;;12.01;100.00;99496.41;5158080;27;20408;-60
2023/10/05 00:57:56;;;;;;;9.20;2.55;;;;;;;12.05;100.00;99490.97;5158431;27;20046;-63
2023/10/05 01:00:27;;;;;;;10.73;3.35;;;;;;;11.95;100.00;99497.88;5158299;27;20058;-59
2023/10/05 01:03:10;;;;;;;10.40;3.22;;;;;;;12.01;100.00;99454.41;5158161;27;20050;-60
2023/10/05 01:05:47;;;;;;;9.65;2.83;;;;;;;12.06;100.00;99464.28;5158045;27;20486;-61
2023/10/05 01:08:15;;;;;;;9.23;2.92;;;;;;;11.51;100.00;99511.16;5158461;27;20055;-62
2023/10/05 01:10:44;;;;;;;8.10;2.47;;;;;;;11.83;100.00;99528.25;5157890;27;20332;-62
2023/10/05 01:13:29;;;;;;;7.40;2.70;;;;;;;11.57;100.00;99515.19;5158112;27;20054;-59
2023/10/05 01:15:55;;;;;;;7.57;3.00;;;;;;;11.68;100.00;99568.38;5158213;27;20448;-62
2023/10/05 01:18:25;;;;;;;6.45;2.72;;;;;;;11.82;100.00;99581.56;5157977;27;20141;-61
2023/10/05 01:20:52;;;;;;;11.38;3.13;;;;;;;11.37;100.00;99574.00;5158122;27;20046;-60
2023/10/05 01:23:28;;;;;;;8.52;2.50;;;;;;;11.76;100.00;99600.31;5157746;27;20061;-60
2023/10/05 01:25:54;;;;;;;12.65;2.78;;;;;;;11.68;100.00;99573.84;5158230;27;20133;-61
2023/10/05 01:28:20;;;;;;;12.10;3.53;;;;;;;11.67;100.00;99601.69;5157742;27;20057;-62
2023/10/05 01:30:46;;;;;;;8.15;2.83;;;;;;;11.72;100.00;99599.44;5158206;27;20051;-60
2023/10/05 01:33:12;;;;;;;6.60;2.80;;;;;;;11.51;100.00;99599.00;5157841;27;20042;-60
2023/10/05 01:35:41;;;;;;;9.38;3.38;;;;;;;11.44;100.00;99585.13;5157831;27;20085;-60
2023/10/05 01:38:07;;;;;;;15.80;2.90;;;;;;;11.41;100.00;99618.78;5159801;27;20123;-62
2023/10/05 01:40:36;;;;;;;11.98;3.20;;;;;;;11.21;100.00;99613.28;5161436;27;20047;-61
2023/10/05 01:43:03;;;;;;;10.45;3.22;;;;;;;11.36;100.00;99619.06;5161571;27;20046;-60
2023/10/05 01:45:29;;;;;;;13.70;3.53;;;;;;;11.23;100.00;99629.38;5161295;27;20076;-61
2023/10/05 01:47:57;;;;;;;10.05;3.20;;;;;;;11.36;100.00;99649.25;5161610;27;20091;-62
2023/10/05 01:50:23;;;;;;;4.75;2.60;;;;;;;11.24;100.00;99650.97;5161256;27;20055;-60
2023/10/05 01:52:55;;;;;;;11.57;3.35;;;;;;;11.08;100.00;99652.94;5161437;27;20305;-62
2023/10/05 01:55:22;;;;;;;10.60;2.80;;;;;;;11.34;100.00;99643.34;5161022;27;20424;-59
2023/10/05 01:57:50;;;;;;;8.43;3.55;;;;;;;11.39;100.00;99667.75;5161484;27;20142;-60
2023/10/05 02:00:23;;;;;;;10.18;2.92;;;;;;;11.35;100.00;99664.16;5160886;27;20046;-60
2023/10/05 02:02:49;;;;;;;4.83;2.67;;;;;;;11.41;100.00;99662.72;5161123;27;20079;-61
2023/10/05 02:05:18;;;;;;;8.50;3.08;;;;;;;11.72;100.00;99648.88;5161027;27;20047;-60
2023/10/05 02:07:44;;;;;;;11.32;3.35;;;;;;;11.29;100.00;99609.50;5160996;27;20046;-59
2023/10/05 02:10:13;;;;;;;9.55;4.05;;;;;;;11.78;100.00;99625.47;5160928;27;20404;-60
2023/10/05 02:12:39;;;;;;;7.43;2.83;;;;;;;11.67;100.00;99615.44;5160892;27;20054;-60
2023/10/05 02:15:13;;;;;;;6.40;2.50;;;;;;;11.85;100.00;99591.09;5161068;27;20043;-59
2023/10/05 02:17:41;;;;;;;6.57;3.08;;;;;;;11.64;100.00;99522.78;5160766;27;20106;-60
2023/10/05 02:20:13;;;;;;;7.43;2.95;;;;;;;11.67;100.00;99555.78;5160984;27;20433;-61
2023/10/05 02:22:40;;;;;;;9.00;2.90;;;;;;;11.78;100.00;99492.81;5160500;27;20103;-61
2023/10/05 02:25:08;;;;;;;8.55;3.05;;;;;;;11.79;100.00;99447.72;5160515;27;20179;-61
2023/10/05 02:27:46;;;;;;;6.72;2.17;;;;;;;11.75;100.00;99419.38;5160739;27;20309;-60
2023/10/05 02:30:14;;;;;;;9.75;2.83;;;;;;;11.59;100.00;99381.06;5160368;27;20451;-60
2023/10/05 02:32:40;;;;;;;8.18;3.00;;;;;;;11.79;100.00;99346.06;5160738;27;20113;-59
2023/10/05 02:35:18;;;;;;;7.50;2.50;;;;;;;11.65;100.00;99359.59;5160489;27;20053;-60
2023/10/05 02:37:48;;;;;;;5.63;2.35;;;;;;;11.79;100.00;99321.34;5160768;27;20061;-63
2023/10/05 02:40:15;;;;;;;6.95;3.17;;;;;;;11.59;100.00;99326.16;5160218;27;20074;-62
2023/10/05 02:42:41;;;;;;;8.93;3.05;;;;;;;11.74;100.00;99330.72;5160753;27;20053;-61
2023/10/05 02:45:11;;;;;;;9.95;3.13;;;;;;;11.80;100.00;99294.72;5160125;27;20042;-62
2023/10/05 02:47:37;;;;;;;8.63;2.70;;;;;;;11.78;100.00;99268.38;5160433;27;20046;-59
2023/10/05 02:50:05;;;;;;;10.38;3.20;;;;;;;11.87;100.00;99257.16;5159234;27;20198;-60
2023/10/05 02:52:33;;;;;;;7.85;2.67;;;;;;;11.68;100.00;99244.31;5160126;27;20050;-61
2023/10/05 02:54:59;;;;;;;10.48;2.67;;;;;;;11.64;100.00;99273.66;5160520;27;20054;-61
2023/10/05 02:57:26;;;;;;;9.35;2.92;;;;;;;11.64;100.00;99231.69;5160214;27;20339;-61
2023/10/05 02:59:51;;;;;;;9.73;2.97;;;;;;;11.62;100.00;99256.75;5160210;27;20086;-60
2023/10/05 03:02:18;;;;;;;8.48;2.78;;;;;;;11.61;100.00;99290.09;5159925;27;20054;-61
2023/10/05 03:04:45;;;;;;;8.32;2.95;;;;;;;11.60;100.00;99275.56;5160315;27;20078;-60
2023/10/05 03:07:12;;;;;;;8.95;2.60;;;;;;;11.79;100.00;99260.94;5159941;27;20042;-62
2023/10/05 03:09:40;;;;;;;8.40;2.75;;;;;;;11.37;100.00;99214.44;5160199;27;20050;-59
2023/10/05 03:12:07;;;;;;;8.82;4.38;;;;;;;11.62;100.00;99277.94;5159756;27;20050;-60
2023/10/05 03:14:34;;;;;;;3.78;2.00;;;;;;;11.86;100.00;99199.84;5160015;27;20078;-60
2023/10/05 03:17:04;;;;;;;7.18;2.10;;;;;;;11.77;100.00;99176.16;5160030;27;20061;-60
2023/10/05 03:19:36;;;;;;;10.00;2.60;;;;;;;11.88;100.00;99203.00;5159752;27;20090;-59
2023/10/05 03:22:04;;;;;;;6.32;2.60;;;;;;;11.95;100.00;99183.88;5159838;27;20324;-60
2023/10/05 03:24:30;;;;;;;5.60;2.78;;;;;;;11.86;100.00;99249.28;5159750;27;20047;-60
2023/10/05 03:26:56;;;;;;;13.25;2.80;;;;;;;11.96;100.00;99240.38;5159966;27;20057;-61
2023/10/05 03:29:22;;;;;;;7.55;2.70;;;;;;;12.08;100.00;99203.66;5159571;27;20408;-62
2023/10/05 03:31:53;;;;;;;10.23;3.10;;;;;;;11.98;100.00;99144.66;5159899;27;20138;-62
2023/10/05 03:34:19;;;;;;;7.65;2.53;;;;;;;11.89;100.00;99238.34;5159387;27;20051;-60
2023/10/05 03:36:47;;;;;;;8.13;2.65;;;;;;;11.86;100.00;99239.09;5159941;27;20078;-62
2023/10/05 03:39:14;;;;;;;11.50;2.88;;;;;;;11.75;100.00;99265.59;5159165;27;20133;-62
2023/10/05 03:41:40;;;;;;;10.07;3.13;;;;;;;11.88;100.00;99286.22;5159554;27;20051;-60
2023/10/05 03:44:07;;;;;;;9.10;2.67;;;;;;;11.99;100.00;99218.47;5159562;27;20440;-59
2023/10/05 03:46:33;;;;;;;7.70;2.92;;;;;;;11.78;100.00;99168.72;5159420;27;20051;-60
2023/10/05 03:49:01;;;;;;;10.00;3.10;;;;;;;11.89;100.00;99237.56;5159565;27;20135;-61
2023/10/05 03:51:28;;;;;;;6.75;2.47;;;;;;;12.02;100.00;99253.44;5159260;27;20043;-59
2023/10/05 03:53:55;;;;;;;5.53;2.75;;;;;;;11.54;100.00;99244.88;5159352;27;20058;-62
2023/10/05 03:56:26;;;;;;;8.80;3.35;;;;;;;11.57;100.00;99276.31;5159138;27;20071;-59
2023/10/05 03:58:52;;;;;;;8.48;3.38;;;;;;;11.83;100.00;99360.69;5159446;27;20047;-62
2023/10/05 04:01:19;;;;;;;11.68;2.70;;;;;;;11.96;100.00;99317.31;5158623;27;20050;-61
2023/10/05 04:03:46;;;;;;;10.02;2.95;;;;;;;11.81;100.00;99224.88;5159446;27;20138;-60
2023/10/05 04:06:20;;;;;;;9.23;3.20;;;;;;;11.85;100.00;99231.22;5158889;27;20046;-62
2023/10/05 04:08:48;;;;;;;9.10;3.25;;;;;;;11.82;100.00;99311.59;5159106;27;20396;-60
2023/10/05 04:11:16;;;;;;;8.75;3.28;;;;;;;11.86;100.00;99285.81;5159110;27;20050;-62
2023/10/05 04:13:45;;;;;;;11.60;3.08;;;;;;;11.41;100.00;99349.78;5158816;27;20493;-59
2023/10/05 04:16:17;;;;;;;16.88;3.28;;;;;;;11.78;100.00;99383.75;5158968;27;20047;-61
2023/10/05 04:18:46;;;;;;;8.73;2.83;;;;;;;11.76;100.00;99409.97;5158757;27;20068;-62
2023/10/05 04:21:13;;;;;;;12.25;3.65;;;;;;;11.80;100.00;99369.66;5158968;27;20047;-61
2023/10/05 04:23:40;;;;;;;7.18;3.10;;;;;;;11.85;100.00;99355.63;5158641;27;20053;-61
2023/10/05 04:26:08;;;;;;;13.57;3.70;;;;;;;11.80;100.00;99399.09;5158989;27;20046;-61
2023/10/05 04:28:34;;;;;;;9.05;3.35;;;;;;;11.60;100.00;99370.91;5158479;27;20066;-60
2023/10/05 04:31:06;;;;;;;8.98;3.47;;;;;;;11.92;100.00;99399.69;5158703;27;20146;-59
2023/10/05 04:33:32;;;;;;;11.55;3.50;;;;;;;11.82;100.00;99380.25;5158918;27;20050;-61
2023/10/05 04:35:58;;;;;;;10.82;3.50;;;;;;;11.61;100.00;99388.94;5158571;27;20504;-60
2023/10/05 04:38:25;;;;;;;10.25;3.65;;;;;;;11.53;100.00;99462.16;5158694;27;20047;-60
2023/10/05 04:40:51;;;;;;;9.15;3.13;;;;;;;11.79;100.00;99488.91;5158438;27;20050;-62
2023/10/05 04:43:19;;;;;;;9.85;3.65;;;;;;;11.68;100.00;99510.69;5158543;27;20098;-60
2023/10/05 04:45:46;;;;;;;10.15;3.25;;;;;;;11.90;100.00;99489.16;5158390;27;20055;-59
2023/10/05 04:48:12;;;;;;;12.70;3.53;;;;;;;11.66;100.00;99444.38;5158564;27;20194;-59
2023/10/05 04:50:40;;;;;;;11.32;3.90;;;;;;;11.76;100.00;99453.94;5158076;27;20134;-59
2023/10/05 04:53:09;;;;;;;9.68;3.30;;;;;;;11.95;100.00;99387.19;5158537;27;20050;-62
2023/10/05 04:55:41;;;;;;;10.65;3.47;;;;;;;12.09;100.00;99345.38;5157771;27;20126;-59
2023/10/05 04:58:23;;;;;;;10.13;3.13;;;;;;;11.71;100.00;99361.66;5157924;27;20324;-62
2023/10/05 05:00:54;;;;;;;14.18;3.70;;;;;;;11.47;100.00;99434.22;5157727;27;20145;-60
2023/10/05 05:03:47;;;;;;;10.55;4.10;;;;;;;11.98;100.00;99394.69;5157885;27;20423;-62
2023/10/05 05:06:14;;;;;;;10.95;3.28;;;;;;;11.69;100.00;99412.63;5158265;27;20081;-62
2023/10/05 05:08:40;;;;;;;9.13;3.13;;;;;;;11.86;100.00;99436.06;5157746;27;20058;-61
2023/10/05 05:11:11;;;;;;;13.27;4.82;;;;;;;12.02;100.00;99365.31;5158204;27;20133;-61
2023/10/05 05:13:38;;;;;;;9.02;3.38;;;;;;;12.06;100.00;99335.91;5156839;27;20050;-57
2023/10/05 05:16:05;;;;;;;10.00;3.28;;;;;;;12.19;100.00;99300.75;5157924;27;20111;-59
2023/10/05 05:18:32;;;;;;;10.30;3.33;;;;;;;12.27;100.00;99258.47;5157816;27;20158;-59
2023/10/05 05:20:58;;;;;;;16.02;3.67;;;;;;;12.19;100.00;99298.81;5157524;27;20046;-59
2023/10/05 05:23:24;;;;;;;17.27;4.57;;;;;;;12.23;100.00;99255.69;5157825;27;20137;-57
2023/10/05 05:25:51;;;;;;;12.75;4.00;;;;;;;12.45;100.00;99217.44;5157333;27;20435;-60
2023/10/05 05:28:17;;;;;;;12.63;3.67;;;;;;;12.36;100.00;99193.00;5157656;27;20046;-58
2023/10/05 05:30:43;;;;;;;14.48;4.03;;;;;;;12.58;100.00;99199.50;5157494;27;20130;-60
2023/10/05 05:33:10;;;;;;;14.45;4.05;;;;;;;12.59;100.00;99132.34;5157692;27;20062;-60
2023/10/05 05:35:37;;;;;;;8.68;3.80;;;;;;;12.42;100.00;99135.72;5157347;27;20046;-59
2023/10/05 05:38:04;;;;;;;11.27;3.47;;;;;;;12.46;100.00;99158.53;5157743;27;20046;-57
2023/10/05 05:40:34;;;;;;;8.88;3.70;;;;;;;12.56;100.00;99126.81;5157001;27;20110;-59
2023/10/05 05:43:00;;;;;;;11.73;4.15;;;;;;;12.69;100.00;99098.66;5157298;27;20058;-59
2023/10/05 05:45:25;;;;;;;9.55;3.22;;;;;;;12.68;100.00;99096.28;5157596;27;20332;-62
2023/10/05 05:47:52;;;;;;;17.88;4.57;;;;;;;12.57;100.00;99096.19;5157352;27;20491;-59
2023/10/05 05:50:17;;;;;;;15.20;4.25;;;;;;;12.77;100.00;99080.25;5157384;27;20503;-57
2023/10/05 05:52:46;;;;;;;17.02;4.82;;;;;;;12.64;100.00;99063.25;5157165;27;20050;-61
2023/10/05 05:55:13;;;;;;;15.90;5.40;;;;;;;12.38;100.00;99151.38;5157334;27;20051;-59
2023/10/05 05:57:39;;;;;;;12.32;4.30;;;;;;;12.58;100.00;99163.75;5157201;27;20191;-59
2023/10/05 06:00:12;;;;;;;17.88;5.88;;;;;;;12.54;100.00;99160.19;5157383;27;20090;-61
2023/10/05 06:02:39;;;;;;;14.52;4.63;;;;;;;12.59;100.00;99164.53;5156996;27;20042;-61
2023/10/05 06:05:08;;;;;;;21.63;6.20;;;;;;;12.51;100.00;99081.22;5157478;27;20370;-63
2023/10/05 06:07:35;;;;;;;10.00;3.85;;;;;;;12.35;100.00;99095.19;5156834;27;20089;-62
2023/10/05 06:10:04;;;;;;;12.02;4.20;;;;;;;12.39;100.00;99140.00;5156936;27;20412;-60
2023/10/05 06:12:31;;;;;;;11.68;4.65;;;;;;;12.51;100.00;99135.41;5157271;27;20046;-62
2023/10/05 06:14:57;;;;;;;11.20;4.10;;;;;;;12.30;100.00;99067.28;5157108;27;20107;-59
2023/10/05 06:17:23;;;;;;;15.52;4.63;;;;;;;12.63;100.00;99022.38;5157383;27;20328;-60
2023/10/05 06:19:49;;;;;;;19.75;4.40;;;;;;;12.59;100.00;98931.59;5157008;27;20145;-60
2023/10/05 06:22:15;;;;;;;12.77;4.82;;;;;;;12.26;100.00;98982.00;5157224;27;20055;-60
2023/10/05 06:24:42;;;;;;;11.70;4.93;;;;;;;12.57;100.00;98996.41;5159560;27;20103;-58
2023/10/05 06:27:08;;;;;;;12.18;4.55;;;;;;;12.66;100.00;98999.59;5160558;27;20106;-56
2023/10/05 06:29:35;;;;;;;17.85;4.70;;;;;;;12.63;100.00;99006.66;5160358;27;20054;-58
2023/10/05 06:32:02;;;;;;;11.70;4.75;;;;;;;12.55;100.00;98958.28;5160610;27;20145;-61
2023/10/05 06:34:28;;;;;;;9.32;4.78;;;;;;;12.70;100.00;98986.69;5160210;27;20084;-59
2023/10/05 06:36:54;;;;;;;16.73;4.85;;;;;;;12.71;100.00;98950.53;5159965;27;20355;-59
2023/10/05 06:39:20;;;;;;;11.15;4.15;;;;;;;12.68;100.00;98907.28;5159938;27;20077;-58
2023/10/05 06:41:46;;;;;;;22.33;6.65;;;;;;;13.00;100.00;98905.88;5159973;27;20050;-57
2023/10/05 06:44:13;;;;;;;12.25;4.28;;;;;;;12.82;100.00;98889.28;5160126;27;20400;-59
2023/10/05 06:46:40;;;;;;;13.88;4.43;;;;;;;12.84;100.00;98809.91;5159736;27;20129;-59
2023/10/05 06:49:06;;;;;;;15.90;5.32;;;;;;;12.89;100.00;98873.56;5159781;27;20072;-57
2023/10/05 06:51:32;;;;;;;10.73;3.92;;;;;;;13.54;100.00;98844.28;5159932;27;20061;-60
2023/10/05 06:53:58;;;;;;;11.02;3.70;;;;;;;13.34;100.00;98677.88;5160237;27;20106;-60
2023/10/05 06:56:25;;;;;;;13.68;4.10;;;;;;;13.45;100.00;98615.31;5159605;27;20046;-58
2023/10/05 06:58:52;;;;;;;11.93;4.30;;;;;;;13.54;100.00;98623.19;5159941;27;20396;-61
2023/10/05 07:01:20;;;;;;;11.48;4.28;;;;;;;13.49;100.00;98572.03;5159562;27;20089;-60
2023/10/05 07:03:52;;;;;;;11.52;3.58;;;;;;;12.89;100.00;98680.22;5160016;27;20042;-60
2023/10/05 07:06:19;;;;;;;12.75;4.50;;;;;;;13.19;100.00;98699.09;5159522;27;20416;-55
2023/10/05 07:08:46;;;;;;;16.40;4.70;;;;;;;13.39;100.00;98642.50;5159777;27;20129;-61
2023/10/05 07:11:12;;;;;;;14.32;4.80;;;;;;;13.23;100.00;98602.75;5159716;27;20050;-60
2023/10/05 07:13:38;;;;;;;7.43;3.70;;;;;;;12.99;100.00;98613.38;5159449;27;20051;-58
2023/10/05 07:16:05;;;;;;;15.52;5.07;;;;;;;13.48;100.00;98614.53;5159754;27;20191;-58
2023/10/05 07:18:32;;;;;;;13.30;3.90;;;;;;;14.03;100.00;98520.22;5159137;27;20043;-59
2023/10/05 07:20:58;;;;;;;15.95;4.35;;;;;;;14.37;100.00;98378.97;5159739;27;20130;-60
2023/10/05 07:23:24;;;;;;;16.90;4.63;;;;;;;15.06;100.00;98311.56;5159335;27;20458;-59
2023/10/05 07:25:50;;;;;;;18.08;4.65;;;;;;;15.00;100.00;98315.22;5159791;27;20082;-58
2023/10/05 07:28:16;;;;;;;12.77;6.28;;;;;;;15.58;100.00;98326.19;5159274;27;20060;-57
2023/10/05 07:30:43;;;;;;;11.43;4.50;;;;;;;15.45;100.00;98354.38;5159628;27;20059;-60
2023/10/05 07:33:11;;;;;;;8.15;3.97;;;;;;;15.84;100.00;98382.66;5159331;27;20324;-60
2023/10/05 07:35:38;;;;;;;10.45;4.38;;;;;;;15.88;100.00;98391.66;5158296;27;20490;-58
2023/10/05 07:38:04;;;;;;;14.68;4.95;;;;;;;16.17;100.00;98417.66;5159283;27;20161;-59
2023/10/05 07:40:30;;;;;;;12.48;4.22;;;;;;;16.29;100.00;98430.09;5159007;27;20191;-61
2023/10/05 07:42:56;;;;;;;16.48;6.80;;;;;;;16.49;100.00;98488.25;5159085;27;20346;-61
2023/10/05 07:45:22;;;;;;;7.20;3.60;;;;;;;16.32;100.00;98495.63;5158818;27;20051;-57
2023/10/05 07:47:48;;;;;;;15.98;4.30;;;;;;;16.72;100.00;98520.66;5158983;27;20099;-55
2023/10/05 07:50:15;;;;;;;16.23;6.60;;;;;;;16.47;100.00;98474.84;5158755;27;20342;-59
2023/10/05 07:52:44;;;;;;;11.27;4.28;;;;;;;16.31;100.00;98471.16;5159058;27;20072;-58
2023/10/05 07:55:11;;;;;;;13.77;3.55;;;;;;;16.65;100.00;98477.28;5158624;27;20053;-59
2023/10/05 07:57:37;;;;;;;10.15;3.55;;;;;;;16.87;100.00;98486.03;5158722;27;20137;-59
2023/10/05 08:00:06;;;;;;;15.15;4.00;;;;;;;17.64;100.00;98590.22;5158424;27;20069;-60
2023/10/05 08:02:32;;;;;;;13.98;3.55;;;;;;;18.02;100.00;98684.16;5158929;27;20053;-61
2023/10/05 08:04:58;;;;;;;17.45;6.32;;;;;;;18.49;100.00;98672.91;5158755;27;20050;-59
2023/10/05 08:07:24;;;;;;;10.68;3.25;;;;;;;18.00;100.00;98669.16;5158488;27;20061;-58
2023/10/05 08:09:51;;;;;;;12.30;3.67;;;;;;;17.85;100.00;98658.34;5158706;27;20113;-59
2023/10/05 08:12:16;;;;;;;14.27;3.90;;;;;;;16.88;100.00;98542.19;5158593;27;20080;-59
2023/10/05 08:14:44;;;;;;;18.50;7.13;;;;;;;16.92;100.00;98513.22;5158663;27;20281;-59
2023/10/05 08:17:12;;;;;;;12.43;5.03;;;;;;;16.45;100.00;98460.63;5158477;27;20042;-62
2023/10/05 08:19:38;;;;;;;7.47;3.38;;;;;;;16.24;100.00;98403.72;5158861;27;20054;-62
2023/10/05 08:22:04;;;;;;;18.05;6.50;;;;;;;16.82;100.00;98480.19;5158333;27;20381;-58
2023/10/05 08:24:31;;;;;;;9.63;3.60;;;;;;;16.71;100.00;98492.22;5158842;27;20218;-62
2023/10/05 08:26:58;;;;;;;11.52;4.38;;;;;;;16.63;100.00;98470.63;5158288;27;20046;-63
2023/10/05 08:29:24;;;;;;;15.45;3.63;;;;;;;16.38;100.00;98452.47;5158821;27;20077;-63
2023/10/05 08:31:51;;;;;;;11.43;4.03;;;;;;;16.65;100.00;98413.63;5158451;27;20047;-62
2023/10/05 08:34:20;;;;;;;15.43;6.72;;;;;;;16.93;100.00;98480.78;5158549;27;20092;-64
2023/10/05 08:36:49;;;;;;;12.63;3.45;;;;;;;17.03;100.00;98549.03;5158337;27;20443;-63
2023/10/05 08:39:15;;;;;;;11.05;3.75;;;;;;;16.87;100.00;98533.09;5158366;27;20092;-64
2023/10/05 08:41:42;;;;;;;12.68;3.90;;;;;;;16.87;100.00;98566.31;5158503;27;20403;-63
2023/10/05 08:44:15;;;;;;;16.30;6.15;;;;;;;17.28;100.00;98570.72;5158304;27;20054;-62
2023/10/05 08:46:43;;;;;;;8.48;3.90;;;;;;;17.69;100.00;98610.31;5157438;27;20057;-66
2023/10/05 08:49:10;;;;;;;10.98;3.67;;;;;;;17.68;100.00;98586.59;5157916;27;20070;-64
2023/10/05 08:51:38;;;;;;;9.57;3.47;;;;;;;17.51;100.00;98580.97;5158530;27;20320;-62
2023/10/05 08:54:09;;;;;;;15.80;5.13;;;;;;;17.23;100.00;98543.53;5158068;27;20420;-60
2023/10/05 08:56:36;;;;;;;8.90;4.88;;;;;;;17.87;100.00;98583.06;5157717;27;20081;-58
2023/10/05 08:59:07;;;;;;;14.32;3.50;;;;;;;17.70;100.00;98628.53;5157964;27;20141;-59
2023/10/05 09:01:34;;;;;;;11.63;3.42;;;;;;;17.71;100.00;98560.78;5157967;27;20046;-60
2023/10/05 09:04:11;;;;;;;15.88;4.20;;;;;;;17.47;100.00;98549.00;5157993;27;20051;-62
2023/10/05 09:06:47;;;;;;;12.93;3.78;;;;;;;16.82;100.00;98494.03;5157996;27;20072;-63
2023/10/05 09:09:14;;;;;;;13.32;3.50;;;;;;;16.89;100.00;98475.31;5158216;27;20050;-63
2023/10/05 09:11:41;;;;;;;12.68;4.05;;;;;;;16.74;100.00;98462.91;5157859;27;20058;-62
2023/10/05 09:14:17;;;;;;;17.60;4.13;;;;;;;16.08;100.00;98435.97;5158247;27;20416;-64
2023/10/05 09:16:47;;;;;;;12.75;4.00;;;;;;;16.83;100.00;98418.09;5157591;27;20402;-64
2023/10/05 09:19:17;;;;;;;7.22;3.42;;;;;;;17.36;100.00;98522.28;5157758;27;20074;-58
2023/10/05 09:21:45;;;;;;;12.57;3.72;;;;;;;16.94;100.00;98568.97;5157918;27;20119;-57
2023/10/05 09:24:20;;;;;;;11.48;3.58;;;;;;;16.90;100.00;98496.25;5157502;27;20368;-58
2023/10/05 09:26:50;;;;;;;12.77;3.60;;;;;;;16.54;100.00;98498.06;5157830;27;20051;-59
2023/10/05 09:29:22;;;;;;;12.25;3.05;;;;;;;17.50;100.00;98546.16;5157446;27;20070;-57
2023/10/05 09:31:51;;;;;;;15.80;4.63;;;;;;;16.87;100.00;98544.16;5157689;27;20089;-59
2023/10/05 09:34:19;;;;;;;12.20;6.05;;;;;;;17.31;100.00;98564.34;5157393;27;20054;-55
2023/10/05 09:36:47;;;;;;;7.65;3.40;;;;;;;17.88;100.00;98598.47;5157739;27;20061;-56
2023/10/05 09:39:15;;;;;;;11.70;3.95;;;;;;;18.01;100.00;98626.34;5157101;27;20314;-60
2023/10/05 09:41:49;;;;;;;10.07;3.83;;;;;;;17.57;100.00;98651.34;5157488;27;20451;-58
2023/10/05 09:44:17;;;;;;;11.98;3.25;;;;;;;18.60;100.00;98678.19;5157343;27;20058;-59
2023/10/05 09:46:44;;;;;;;14.32;4.05;;;;;;;18.87;100.00;98707.78;5157125;27;20138;-58
2023/10/05 09:49:14;;;;;;;10.60;3.60;;;;;;;19.44;100.00;98712.72;5157504;27;20054;-58
2023/10/05 09:51:43;;;;;;;11.07;3.88;;;;;;;18.60;100.00;98717.06;5157157;27;20046;-57
2023/10/05 09:54:10;;;;;;;12.05;3.75;;;;;;;18.26;100.00;98709.03;5157630;27;20115;-58
2023/10/05 09:56:36;;;;;;;20.42;4.07;;;;;;;17.74;100.00;98685.47;5157205;27;20047;-57
2023/10/05 09:59:03;;;;;;;11.00;3.28;;;;;;;17.69;100.00;98658.22;5159504;27;20146;-58
2023/10/05 10:01:31;;;;;;;11.15;3.97;;;;;;;17.69;100.00;98646.38;5160736;27;20326;-59
2023/10/05 10:03:59;;;;;;;15.82;3.35;;;;;;;17.59;100.00;98629.53;5161151;27;20060;-60
2023/10/05 10:06:28;;;;;;;10.15;3.33;;;;;;;17.76;100.00;98638.75;5160752;27;20050;-60
2023/10/05 10:08:57;;;;;;;10.90;3.67;;;;;;;17.67;100.00;98632.94;5160801;27;20051;-58
2023/10/05 10:11:31;;;;;;;11.25;3.70;;;;;;;17.46;100.00;98602.84;5160929;27;20061;-61
2023/10/05 10:14:00;;;;;;;17.77;6.97;;;;;;;17.24;100.00;98608.78;5160811;27;20055;-63
2023/10/05 10:16:28;;;;;;;7.97;3.47;;;;;;;16.84;100.00;98572.69;5160980;27;20098;-65
2023/10/05 10:19:04;;;;;;;8.85;3.03;;;;;;;16.96;100.00;98582.41;5160502;27;20137;-62
2023/10/05 10:21:34;;;;;;;7.22;3.17;;;;;;;17.31;100.00;98596.81;5160938;27;20050;-63
2023/10/05 10:24:03;;;;;;;14.45;4.55;;;;;;;17.31;100.00;98580.97;5160485;27;20137;-62
2023/10/05 10:26:29;;;;;;;9.80;3.42;;;;;;;16.73;100.00;98562.97;5160857;27;20051;-64
2023/10/05 10:28:58;;;;;;;10.30;3.42;;;;;;;16.88;100.00;98542.19;5160151;27;20412;-59
2023/10/05 10:31:30;;;;;;;8.27;3.13;;;;;;;16.53;100.00;98549.06;5160070;27;20416;-61
2023/10/05 10:33:56;;;;;;;10.63;3.00;;;;;;;16.15;100.00;98540.94;5160502;27;20153;-58
2023/10/05 10:36:52;;;;;;;13.15;3.22;;;;;;;16.00;100.00;98465.72;5160294;27;20424;-57
2023/10/05 10:39:24;;;;;;;14.10;3.47;;;;;;;16.29;100.00;98477.09;5160238;27;20061;-60
2023/10/05 10:41:54;;;;;;;9.35;3.40;;;;;;;16.71;100.00;98514.34;5160230;27;20054;-61
2023/10/05 10:44:22;;;;;;;13.55;3.78;;;;;;;16.73;100.00;98491.81;5160414;27;20138;-59
2023/10/05 10:46:54;;;;;;;7.65;3.15;;;;;;;16.54;100.00;98511.91;5159926;27;20057;-60
2023/10/05 10:49:20;;;;;;;8.27;3.15;;;;;;;16.28;100.00;98436.06;5160041;27;20050;-54
2023/10/05 10:51:46;;;;;;;14.75;6.15;;;;;;;16.01;100.00;98445.16;5159946;27;20054;-57
2023/10/05 10:54:21;;;;;;;11.93;3.35;;;;;;;16.03;100.00;98417.91;5159965;27;20313;-57
2023/10/05 10:56:47;;;;;;;12.10;3.60;;;;;;;16.10;100.00;98422.53;5160244;27;20408;-59
2023/10/05 10:59:14;;;;;;;18.15;7.75;;;;;;;16.40;100.00;98403.03;5159813;27;20051;-58
2023/10/05 11:01:43;;;;;;;9.27;3.88;;;;;;;16.25;100.00;98426.59;5160007;27;20050;-57
2023/10/05 11:04:23;;;;;;;7.40;3.15;;;;;;;15.96;100.00;98398.63;5159693;27;20081;-59
2023/10/05 11:06:51;;;;;;;10.77;3.92;;;;;;;16.35;100.00;98422.09;5159980;27;20046;-59
2023/10/05 11:09:24;;;;;;;12.63;4.05;;;;;;;15.92;100.00;98386.88;5159184;27;20051;-60
2023/10/05 11:11:50;;;;;;;9.38;3.42;;;;;;;16.02;100.00;98357.47;5159127;27;20058;-62
2023/10/05 11:14:21;;;;;;;10.60;3.17;;;;;;;15.52;100.00;98345.22;5159538;27;20050;-59
2023/10/05 11:16:59;;;;;;;7.03;2.95;;;;;;;15.96;100.00;98371.81;5160072;27;20092;-60
2023/10/05 11:19:34;;;;;;;13.82;4.22;;;;;;;15.90;100.00;98337.53;5160063;27;20114;-56
2023/10/05 11:22:04;;;;;;;6.90;3.50;;;;;;;15.53;100.00;98303.38;5159472;27;20464;-58
2023/10/05 11:24:31;;;;;;;8.43;3.40;;;;;;;15.46;100.00;98283.34;5160041;27;20042;-60